TGL56GT LIRN-LDSP
Flight info
| Callsign | TGL56GT |
|---|---|
| Flight time | N/A |
| Altitude | 30000 |
| Route | BEDPI DCT MOLUX DCT RUPAX DCT VAPUP |
| Aircraft | B738/M-SDE2E3FGHIRWXY/LB1 |
Departure
| Time | N/A |
|---|---|
| Airport | Naples International Airport (LIRN) |
Arrival
| Time | 2026-04-30 10:59 |
|---|---|
| Airport | Split Saint Jerome Airport (LDSP) |
| Time | Latitude | Longitude | Altitude | Speed | Heading |
|---|---|---|---|---|---|
| 2026-04-30 10:54 | 43.40121 | 16.05007 | 2804 ft | 191 kts | 51° |
| 2026-04-30 10:54 | 43.40928 | 16.06451 | 2805 ft | 191 kts | 52° |
| 2026-04-30 10:54 | 43.41717 | 16.07883 | 2789 ft | 182 kts | 52° |
| 2026-04-30 10:54 | 43.42458 | 16.09221 | 2800 ft | 170 kts | 52° |
| 2026-04-30 10:55 | 43.43179 | 16.10521 | 2808 ft | 173 kts | 52° |
| 2026-04-30 10:55 | 43.43916 | 16.11849 | 2839 ft | 174 kts | 52° |
| 2026-04-30 10:55 | 43.44647 | 16.13164 | 2802 ft | 172 kts | 52° |
| 2026-04-30 10:55 | 43.45370 | 16.14470 | 2564 ft | 171 kts | 51° |
| 2026-04-30 10:56 | 43.46073 | 16.15734 | 2345 ft | 166 kts | 51° |
| 2026-04-30 10:56 | 43.46740 | 16.16937 | 2167 ft | 154 kts | 51° |
| 2026-04-30 10:56 | 43.47366 | 16.18063 | 1968 ft | 143 kts | 52° |
| 2026-04-30 10:56 | 43.47935 | 16.19086 | 1799 ft | 130 kts | 52° |
| 2026-04-30 10:57 | 43.48497 | 16.20099 | 1646 ft | 135 kts | 52° |
| 2026-04-30 10:57 | 43.49075 | 16.21139 | 1422 ft | 139 kts | 51° |
| 2026-04-30 10:57 | 43.49661 | 16.22193 | 1289 ft | 140 kts | 53° |
| 2026-04-30 10:57 | 43.50255 | 16.23260 | 1073 ft | 136 kts | 54° |
| 2026-04-30 10:58 | 43.50815 | 16.24269 | 905 ft | 131 kts | 54° |
| 2026-04-30 10:58 | 43.51379 | 16.25284 | 739 ft | 134 kts | 53° |
| 2026-04-30 10:58 | 43.51946 | 16.26303 | 535 ft | 134 kts | 53° |
| 2026-04-30 10:58 | 43.52499 | 16.27298 | 350 ft | 125 kts | 54° |
| 2026-04-30 10:59 | 43.53026 | 16.28242 | 189 ft | 124 kts | 53° |
| 2026-04-30 10:59 | 43.53561 | 16.29196 | 85 ft | 125 kts | 51° |
| 2026-04-30 10:59 | 43.54037 | 16.30054 | 76 ft | 101 kts | 52° |
| 2026-04-30 10:59 | 43.54297 | 16.30513 | 73 ft | 47 kts | 53° |
| 2026-04-30 11:00 | 43.54456 | 16.30807 | 69 ft | 36 kts | 53° |
| 2026-04-30 11:00 | 43.54522 | 16.30933 | 67 ft | 0 kts | 12° |
| 2026-04-30 11:00 | 43.54538 | 16.30929 | 64 ft | 7 kts | 344° |
| 2026-04-30 11:00 | 43.54573 | 16.30869 | 69 ft | 9 kts | 281° |
| 2026-04-30 11:01 | 43.54538 | 16.30798 | 73 ft | 11 kts | 194° |
| 2026-04-30 11:01 | 43.54449 | 16.30767 | 73 ft | 15 kts | 211° |
| 2026-04-30 11:01 | 43.54363 | 16.30636 | 72 ft | 23 kts | 232° |
| 2026-04-30 11:01 | 43.54255 | 16.30444 | 83 ft | 28 kts | 232° |
| 2026-04-30 11:02 | 43.54129 | 16.30221 | 75 ft | 26 kts | 233° |
| 2026-04-30 11:02 | 43.54003 | 16.30098 | 72 ft | 1 kts | 195° |
| 2026-04-30 11:02 | 43.53929 | 16.30066 | 73 ft | 21 kts | 203° |
| 2026-04-30 11:02 | 43.53893 | 16.30034 | 71 ft | 0 kts | 224° |
| 2026-04-30 11:03 | 43.53865 | 16.29987 | 78 ft | 16 kts | 234° |
| 2026-04-30 11:04 | 43.53745 | 16.29827 | 83 ft | 13 kts | 169° |
| 2026-04-30 11:04 | 43.53733 | 16.29846 | 80 ft | 6 kts | 107° |
| 2026-04-30 11:04 | 43.53729 | 16.29861 | 77 ft | 0 kts | 114° |